createdAt,value
2019-03-27T00:00:59.282Z,94.46
2019-03-27T00:01:59.268Z,94.15
2019-03-27T00:02:59.255Z,93.95
2019-03-27T00:03:59.247Z,93.95
2019-03-27T00:04:59.258Z,94.15
2019-03-27T00:05:59.224Z,93.84
2019-03-27T00:06:59.216Z,93.22
2019-03-27T00:07:59.199Z,93.74
2019-03-27T00:08:59.189Z,93.95
2019-03-27T00:09:59.205Z,93.95
2019-03-27T00:10:59.189Z,94.05
2019-03-27T00:11:59.156Z,93.63
2019-03-27T00:12:59.144Z,93.95
2019-03-27T00:13:59.161Z,94.05
2019-03-27T00:15:12.213Z,93.63
2019-03-27T00:16:00.109Z,94.15
2019-03-27T00:16:59.101Z,94.15
2019-03-27T00:17:59.113Z,94.05
2019-03-27T00:18:59.077Z,94.05
2019-03-27T00:19:59.067Z,94.63
2019-03-27T00:20:59.077Z,93.90
2019-03-27T00:21:59.058Z,94.01
2019-03-27T00:22:59.032Z,94.21
2019-03-27T00:23:59.023Z,94.21
2019-03-27T00:24:59.014Z,94.11
2019-03-27T00:25:59.021Z,94.11
2019-03-27T00:26:58.987Z,94.11
2019-03-27T00:27:58.977Z,94.01
2019-03-27T00:28:58.966Z,94.01
2019-03-27T00:29:58.980Z,94.01
2019-03-27T00:30:58.996Z,94.42
2019-03-27T00:31:58.932Z,94.42
2019-03-27T00:32:58.923Z,94.42
2019-03-27T00:33:58.910Z,94.21
2019-03-27T00:34:58.927Z,94.42
2019-03-27T00:35:58.902Z,94.21
2019-03-27T00:36:58.878Z,94.42
2019-03-27T00:37:58.864Z,93.90
2019-03-27T00:38:58.875Z,93.95
2019-03-27T00:39:58.842Z,94.21
2019-03-27T00:40:58.835Z,94.42
2019-03-27T00:41:58.846Z,94.15
2019-03-27T00:42:58.810Z,94.46
2019-03-27T00:43:58.802Z,94.15
2019-03-27T00:44:58.805Z,94.05
2019-03-27T00:45:58.796Z,94.15
2019-03-27T00:46:58.763Z,94.05
2019-03-27T00:47:58.775Z,94.57
2019-03-27T00:48:58.741Z,94.67
2019-03-27T00:49:58.731Z,94.78
2019-03-27T00:50:58.719Z,94.98
2019-03-27T00:51:58.709Z,95.19
2019-03-27T00:52:58.721Z,94.88
2019-03-27T00:53:58.685Z,94.82
2019-03-27T00:54:58.675Z,94.92
2019-03-27T00:55:58.662Z,95.23
2019-03-27T00:56:58.666Z,94.92
2019-03-27T00:57:58.686Z,94.92
2019-03-27T00:58:58.629Z,94.82
2019-03-27T00:59:58.618Z,94.61
2019-03-27T01:00:58.610Z,94.82
2019-03-27T01:01:58.594Z,94.71
2019-03-27T01:02:58.599Z,95.65
2019-03-27T01:03:58.580Z,95.86
2019-03-27T01:04:58.565Z,95.54
2019-03-27T01:05:58.549Z,95.75
2019-03-27T01:06:58.565Z,95.75
2019-03-27T01:07:58.575Z,95.65
2019-03-27T01:08:58.515Z,95.79
2019-03-27T01:09:58.502Z,95.48
2019-03-27T01:10:58.523Z,95.69
2019-03-27T01:11:58.486Z,95.32
2019-03-27T01:12:58.504Z,95.48
2019-03-27T01:13:58.472Z,95.94
2019-03-27T01:14:58.452Z,95.59
2019-03-27T01:15:58.467Z,95.84
2019-03-27T01:16:58.428Z,95.79
2019-03-27T01:17:58.418Z,95.59
2019-03-27T01:18:58.428Z,95.48
2019-03-27T01:19:58.391Z,95.90
2019-03-27T01:20:58.381Z,95.84
2019-03-27T01:21:58.372Z,95.90
2019-03-27T01:22:58.360Z,95.59
2019-03-27T01:23:58.366Z,95.79
2019-03-27T01:24:58.335Z,95.73
2019-03-27T01:25:58.362Z,95.59
2019-03-27T01:26:58.314Z,95.59
2019-03-27T01:27:58.306Z,95.90
2019-03-27T01:28:58.310Z,95.79
2019-03-27T01:29:58.306Z,96.00
2019-03-27T01:30:58.297Z,95.90
2019-03-27T01:31:58.262Z,95.69
2019-03-27T01:32:58.251Z,96.21
2019-03-27T01:33:58.240Z,96.00
2019-03-27T01:34:58.231Z,96.21
2019-03-27T01:35:58.299Z,96.11
2019-03-27T01:36:58.201Z,96.21
2019-03-27T01:37:58.189Z,95.90
2019-03-27T01:38:58.179Z,95.90
2019-03-27T01:39:58.174Z,96.11
2019-03-27T01:40:58.181Z,96.31
2019-03-27T01:41:58.163Z,96.17
2019-03-27T01:42:58.135Z,96.06
2019-03-27T01:43:58.124Z,96.31
2019-03-27T01:44:58.138Z,96.21
2019-03-27T01:45:58.142Z,96.17
2019-03-27T01:46:58.092Z,96.17
2019-03-27T01:47:58.095Z,95.96
2019-03-27T01:48:58.074Z,95.86
2019-03-27T01:49:58.058Z,95.90
2019-03-27T01:50:58.079Z,95.90
2019-03-27T01:51:58.037Z,95.75
2019-03-27T01:52:58.023Z,95.96
2019-03-27T01:53:58.024Z,95.75
2019-03-27T01:54:58.002Z,95.54
2019-03-27T01:55:58.021Z,95.96
2019-03-27T01:56:58.018Z,95.54
2019-03-27T01:57:57.975Z,95.61
2019-03-27T01:58:57.959Z,95.81
2019-03-27T01:59:57.946Z,95.50
2019-03-27T02:00:57.939Z,95.50
2019-03-27T02:01:57.951Z,95.71
2019-03-27T02:02:57.913Z,95.40
2019-03-27T02:03:57.901Z,95.96
2019-03-27T02:04:57.898Z,95.81
2019-03-27T02:05:57.898Z,95.92
2019-03-27T02:06:57.871Z,95.81
2019-03-27T02:07:57.888Z,95.67
2019-03-27T02:08:57.920Z,95.71
2019-03-27T02:09:57.833Z,95.67
2019-03-27T02:10:57.823Z,95.67
2019-03-27T02:11:57.812Z,95.77
2019-03-27T02:12:57.825Z,95.77
2019-03-27T02:13:57.791Z,95.56
2019-03-27T02:14:57.777Z,95.56
2019-03-27T02:16:06.780Z,96.08
2019-03-27T02:16:58.756Z,96.08
2019-03-27T02:17:57.768Z,95.77
2019-03-27T02:18:57.738Z,95.56
2019-03-27T02:19:57.722Z,95.15
2019-03-27T02:20:57.711Z,95.46
2019-03-27T02:21:57.708Z,95.46
2019-03-27T02:22:57.715Z,95.46
2019-03-27T02:23:57.676Z,95.56
2019-03-27T02:24:57.666Z,95.46
2019-03-27T02:25:57.659Z,95.51
2019-03-27T02:26:57.657Z,95.41
2019-03-27T02:27:57.665Z,95.51
2019-03-27T02:28:57.625Z,95.51
2019-03-27T02:29:57.609Z,95.20
2019-03-27T02:30:57.600Z,95.04
2019-03-27T02:31:57.587Z,94.79
2019-03-27T02:32:57.606Z,94.63
2019-03-27T02:33:57.577Z,94.79
2019-03-27T02:34:57.562Z,95.00
2019-03-27T02:35:57.556Z,95.00
2019-03-27T02:36:57.531Z,95.00
2019-03-27T02:37:57.559Z,95.00
2019-03-27T02:38:57.536Z,94.73
2019-03-27T02:39:57.507Z,94.68
2019-03-27T02:40:57.490Z,94.48
2019-03-27T02:41:57.477Z,95.00
2019-03-27T02:42:57.464Z,94.48
2019-03-27T02:43:57.487Z,94.73
2019-03-27T02:44:57.442Z,94.42
2019-03-27T02:45:57.434Z,94.68
2019-03-27T02:46:57.420Z,94.32
2019-03-27T02:47:57.413Z,94.48
2019-03-27T02:48:57.447Z,94.48
2019-03-27T02:49:57.407Z,94.53
2019-03-27T02:50:57.383Z,95.15
2019-03-27T02:51:57.364Z,94.53
2019-03-27T02:52:57.353Z,94.94
2019-03-27T02:53:57.374Z,94.63
2019-03-27T02:54:57.330Z,94.58
2019-03-27T02:55:57.365Z,94.58
2019-03-27T02:56:57.317Z,94.68
2019-03-27T02:57:57.298Z,94.79
2019-03-27T02:58:57.328Z,95.04
2019-03-27T02:59:57.275Z,94.58
2019-03-27T03:00:57.262Z,94.79
2019-03-27T03:01:57.250Z,94.89
2019-03-27T03:02:57.298Z,95.10
2019-03-27T03:03:57.410Z,95.00
2019-03-27T03:04:57.218Z,95.00
2019-03-27T03:05:57.231Z,94.79
2019-03-27T03:06:57.198Z,94.74
2019-03-27T03:07:57.197Z,95.00
2019-03-27T03:08:57.178Z,94.64
2019-03-27T03:09:57.261Z,95.10
2019-03-27T03:10:57.151Z,94.79
2019-03-27T03:11:57.146Z,94.79
2019-03-27T03:12:57.128Z,94.79
2019-03-27T03:13:57.116Z,94.68
2019-03-27T03:14:57.143Z,94.68
2019-03-27T03:15:57.096Z,94.79
2019-03-27T03:16:57.083Z,94.79
2019-03-27T03:17:57.071Z,94.89
2019-03-27T03:18:57.061Z,94.74
2019-03-27T03:19:57.077Z,94.79
2019-03-27T03:20:57.041Z,95.16
2019-03-27T03:21:57.038Z,94.95
2019-03-27T03:22:57.038Z,94.43
2019-03-27T03:23:57.003Z,94.64
2019-03-27T03:24:57.064Z,94.64
2019-03-27T03:25:56.991Z,93.96
2019-03-27T03:26:56.972Z,93.81
2019-03-27T03:27:56.981Z,93.91
2019-03-27T03:28:56.950Z,94.12
2019-03-27T03:29:56.939Z,94.02
2019-03-27T03:30:56.930Z,93.91
2019-03-27T03:31:56.949Z,94.27
2019-03-27T03:32:56.906Z,94.37
2019-03-27T03:33:56.892Z,94.02
2019-03-27T03:34:56.898Z,94.02
2019-03-27T03:35:56.868Z,94.06
2019-03-27T03:36:56.893Z,93.96
2019-03-27T03:37:56.846Z,94.17
2019-03-27T03:38:57.733Z,94.17
2019-03-27T03:39:56.824Z,94.27
2019-03-27T03:40:56.812Z,94.12
2019-03-27T03:41:56.826Z,94.17
2019-03-27T03:42:56.799Z,94.06
2019-03-27T03:43:56.781Z,93.96
2019-03-27T03:44:56.772Z,93.96
2019-03-27T03:45:56.783Z,94.37
2019-03-27T03:47:00.005Z,94.48
2019-03-27T03:47:56.773Z,94.58
2019-03-27T03:48:56.729Z,94.68
2019-03-27T03:49:56.716Z,94.68
2019-03-27T03:50:56.706Z,94.68
2019-03-27T03:51:56.694Z,94.89
2019-03-27T03:52:56.701Z,94.89
2019-03-27T03:53:56.697Z,94.68
2019-03-27T03:54:56.657Z,94.74
2019-03-27T03:55:56.671Z,94.79
2019-03-27T03:56:56.632Z,94.79
2019-03-27T03:57:56.635Z,94.64
2019-03-27T03:58:56.637Z,94.43
2019-03-27T03:59:56.599Z,94.02
2019-03-27T04:00:56.590Z,94.06
2019-03-27T04:01:56.613Z,94.02
2019-03-27T04:02:56.566Z,94.37
2019-03-27T04:03:56.607Z,94.12
2019-03-27T04:04:56.544Z,94.06
2019-03-27T04:05:56.535Z,94.27
2019-03-27T04:06:56.545Z,94.06
2019-03-27T04:07:56.518Z,93.65
2019-03-27T04:08:56.515Z,93.96
2019-03-27T04:09:56.511Z,93.44
2019-03-27T04:10:56.479Z,94.11
2019-03-27T04:11:56.486Z,94.11
2019-03-27T04:12:56.459Z,94.11
2019-03-27T04:13:56.441Z,94.63
2019-03-27T04:14:56.436Z,94.84
2019-03-27T04:15:56.451Z,94.63
2019-03-27T04:16:56.410Z,94.84
2019-03-27T04:17:56.401Z,95.15
2019-03-27T04:18:56.390Z,94.73
2019-03-27T04:19:56.378Z,94.84
2019-03-27T04:20:56.398Z,94.73
2019-03-27T04:21:56.353Z,94.94
2019-03-27T04:22:56.345Z,94.88
2019-03-27T04:23:56.335Z,94.84
2019-03-27T04:24:56.342Z,94.98
2019-03-27T04:26:09.060Z,95.29
2019-03-27T04:26:57.299Z,94.94
2019-03-27T04:27:56.289Z,94.88
2019-03-27T04:28:56.302Z,94.46
2019-03-27T04:29:56.265Z,95.19
2019-03-27T04:30:56.255Z,94.88
2019-03-27T04:31:56.267Z,95.19
2019-03-27T04:32:56.232Z,95.09
2019-03-27T04:33:56.219Z,95.61
2019-03-27T04:34:56.223Z,95.50
2019-03-27T04:35:56.197Z,95.81
2019-03-27T04:36:56.210Z,95.81
2019-03-27T04:37:56.177Z,95.65
2019-03-27T04:38:56.162Z,95.65
2019-03-27T04:39:56.151Z,95.65
2019-03-27T04:40:56.142Z,95.65
2019-03-27T04:41:56.167Z,95.65
2019-03-27T04:42:56.121Z,95.44
2019-03-27T04:43:56.106Z,95.44
2019-03-27T04:44:56.097Z,95.48
2019-03-27T04:45:56.083Z,95.48
2019-03-27T04:46:56.100Z,95.69
2019-03-27T04:47:56.077Z,95.54
2019-03-27T04:48:56.070Z,95.34
2019-03-27T04:49:56.066Z,95.96
2019-03-27T04:50:56.038Z,96.27
2019-03-27T04:51:56.019Z,95.65
2019-03-27T04:52:56.048Z,96.17
2019-03-27T04:53:55.995Z,96.17
2019-03-27T04:54:56.006Z,96.17
2019-03-27T04:55:55.982Z,96.17
2019-03-27T04:56:55.965Z,96.06
2019-03-27T04:57:55.953Z,96.17
2019-03-27T04:58:55.941Z,95.96
2019-03-27T04:59:55.951Z,96.21
2019-03-27T05:00:55.920Z,96.21
2019-03-27T05:01:55.917Z,96.11
2019-03-27T05:02:55.906Z,96.11
2019-03-27T05:03:55.889Z,96.31
2019-03-27T05:04:55.924Z,97.10
2019-03-27T05:05:55.881Z,97.00
2019-03-27T05:06:55.854Z,97.00
2019-03-27T05:07:55.842Z,96.89
2019-03-27T05:08:55.873Z,97.10
2019-03-27T05:09:55.816Z,97.10
2019-03-27T05:10:55.807Z,97.10
2019-03-27T05:11:55.807Z,96.58
2019-03-27T05:12:55.815Z,96.58
2019-03-27T05:13:55.777Z,96.79
2019-03-27T05:14:55.784Z,96.27
2019-03-27T05:15:55.748Z,96.69
2019-03-27T05:16:55.740Z,97.10
2019-03-27T05:17:55.750Z,96.06
2019-03-27T05:18:55.729Z,96.12
2019-03-27T05:19:55.729Z,96.95
2019-03-27T05:20:55.695Z,96.95
2019-03-27T05:21:55.698Z,96.95
2019-03-27T05:22:55.700Z,97.06
2019-03-27T05:23:55.666Z,96.12
2019-03-27T05:24:55.660Z,96.44
2019-03-27T05:25:55.656Z,96.33
2019-03-27T05:26:55.647Z,96.33
2019-03-27T05:27:55.727Z,96.33
2019-03-27T05:28:55.640Z,96.12
2019-03-27T05:29:55.593Z,96.08
2019-03-27T05:30:55.586Z,95.98
2019-03-27T05:31:55.569Z,96.39
2019-03-27T05:32:55.594Z,96.19
2019-03-27T05:33:55.578Z,95.98
2019-03-27T05:34:55.567Z,95.77
2019-03-27T05:35:55.527Z,95.77
2019-03-27T05:36:55.514Z,96.08
2019-03-27T05:37:55.507Z,96.08
2019-03-27T05:38:55.591Z,95.67
2019-03-27T05:39:55.482Z,95.87
2019-03-27T05:40:55.586Z,95.83
2019-03-27T05:41:55.461Z,95.93
2019-03-27T05:43:01.047Z,96.03
2019-03-27T05:43:56.467Z,95.41
2019-03-27T05:44:55.436Z,95.62
2019-03-27T05:45:55.420Z,95.72
2019-03-27T05:46:55.557Z,95.72
2019-03-27T05:47:59.945Z,95.72
2019-03-27T05:48:55.389Z,95.41
2019-03-27T05:49:55.398Z,95.31
2019-03-27T05:50:55.384Z,95.51
2019-03-27T05:51:55.374Z,95.57
2019-03-27T05:52:55.332Z,95.78
2019-03-27T05:53:55.324Z,95.89
2019-03-27T05:54:55.337Z,95.16
2019-03-27T05:55:55.375Z,95.26
2019-03-27T05:56:55.287Z,95.57
2019-03-27T05:57:55.277Z,95.47
2019-03-27T05:58:55.266Z,95.47
2019-03-27T05:59:55.272Z,94.74
2019-03-27T06:00:55.248Z,94.70
2019-03-27T06:01:55.257Z,94.91
2019-03-27T06:02:55.222Z,94.60
2019-03-27T06:03:55.221Z,94.70
2019-03-27T06:04:55.198Z,94.81
2019-03-27T06:05:55.190Z,94.45
2019-03-27T06:06:55.211Z,94.35
2019-03-27T06:07:55.169Z,94.18
2019-03-27T06:08:55.153Z,93.62
2019-03-27T06:09:55.166Z,92.90
2019-03-27T06:10:55.137Z,93.73
2019-03-27T06:11:55.120Z,94.04
2019-03-27T06:12:55.170Z,93.73
2019-03-27T06:13:55.099Z,93.21
2019-03-27T06:14:55.128Z,93.10
2019-03-27T06:15:55.080Z,93.00
2019-03-27T06:16:55.097Z,92.85
2019-03-27T06:17:55.057Z,93.06
2019-03-27T06:18:55.053Z,92.85
2019-03-27T06:19:55.067Z,92.03
2019-03-27T06:20:55.118Z,92.65
2019-03-27T06:21:55.023Z,91.51
2019-03-27T06:22:54.996Z,91.61
2019-03-27T06:23:54.984Z,90.37
2019-03-27T06:24:55.011Z,90.23
2019-03-27T06:25:54.974Z,91.05
2019-03-27T06:26:54.953Z,90.95
2019-03-27T06:27:55.028Z,90.74
2019-03-27T06:28:54.929Z,90.84
2019-03-27T06:29:54.917Z,90.08
2019-03-27T06:30:54.908Z,89.87
2019-03-27T06:31:54.899Z,90.19
2019-03-27T06:32:54.920Z,90.08
2019-03-27T06:33:54.897Z,89.98
2019-03-27T06:34:54.866Z,89.46
2019-03-27T06:35:54.856Z,89.46
2019-03-27T06:36:54.840Z,88.74
2019-03-27T06:37:54.860Z,89.56
2019-03-27T06:38:54.820Z,89.36
2019-03-27T06:39:54.812Z,89.25
2019-03-27T06:40:54.835Z,88.64
2019-03-27T06:41:54.797Z,88.64
2019-03-27T06:42:54.798Z,88.74
2019-03-27T06:43:54.767Z,88.32
2019-03-27T06:44:54.754Z,87.70
2019-03-27T06:45:54.764Z,87.49
2019-03-27T06:46:54.733Z,87.97
2019-03-27T06:47:54.724Z,88.07
2019-03-27T06:48:54.715Z,87.66
2019-03-27T06:49:54.705Z,87.15
2019-03-27T06:50:54.720Z,86.94
2019-03-27T06:51:54.675Z,87.04
2019-03-27T06:52:54.664Z,86.73
2019-03-27T06:53:54.651Z,86.94
2019-03-27T06:54:54.637Z,87.15
2019-03-27T06:55:54.653Z,86.94
2019-03-27T06:56:54.624Z,86.79
2019-03-27T06:57:54.606Z,87.00
2019-03-27T06:58:55.163Z,85.86
2019-03-27T06:59:54.583Z,85.66
2019-03-27T07:00:54.605Z,86.07
2019-03-27T07:01:54.561Z,85.52
2019-03-27T07:02:54.645Z,85.86
2019-03-27T07:03:54.549Z,86.03
2019-03-27T07:04:54.528Z,85.35
2019-03-27T07:05:54.547Z,85.76
2019-03-27T07:06:54.506Z,85.35
2019-03-27T07:07:54.523Z,85.52
2019-03-27T07:08:54.497Z,86.03
2019-03-27T07:09:54.475Z,85.47
2019-03-27T07:10:54.489Z,85.21
2019-03-27T07:11:54.448Z,84.28
2019-03-27T07:12:54.457Z,84.89
2019-03-27T07:13:54.457Z,85.37
2019-03-27T07:14:54.419Z,85.21
2019-03-27T07:15:54.406Z,84.89
2019-03-27T07:16:54.393Z,84.59
2019-03-27T07:17:54.382Z,85.06
2019-03-27T07:18:54.395Z,85.06
2019-03-27T07:19:54.368Z,85.23
2019-03-27T07:20:54.354Z,84.61
2019-03-27T07:21:54.345Z,84.61
2019-03-27T07:22:54.354Z,84.61
2019-03-27T07:23:54.321Z,83.44
2019-03-27T07:24:54.308Z,83.54
2019-03-27T07:25:54.298Z,83.44
2019-03-27T07:26:54.318Z,82.51
2019-03-27T07:27:54.279Z,83.50
2019-03-27T07:28:54.263Z,83.03
2019-03-27T07:29:54.248Z,82.89
2019-03-27T07:30:54.249Z,83.09
2019-03-27T07:31:54.257Z,82.74
2019-03-27T07:32:54.220Z,80.93
2019-03-27T07:33:54.205Z,81.85
2019-03-27T07:34:54.196Z,81.34
2019-03-27T07:35:54.208Z,81.54
2019-03-27T07:36:56.225Z,81.81
2019-03-27T07:37:54.185Z,82.23
2019-03-27T07:38:54.158Z,81.81
2019-03-27T07:39:54.168Z,81.88
2019-03-27T07:40:54.125Z,82.09
2019-03-27T07:41:54.132Z,80.33
2019-03-27T07:42:54.114Z,80.44
2019-03-27T07:43:54.088Z,80.75
2019-03-27T07:44:54.103Z,81.47
2019-03-27T07:45:54.102Z,81.67
2019-03-27T07:46:54.058Z,80.33
2019-03-27T07:47:54.075Z,80.02
2019-03-27T07:48:54.513Z,79.68
2019-03-27T07:49:54.026Z,79.06
2019-03-27T07:50:54.074Z,79.16
2019-03-27T07:51:54.001Z,79.23
2019-03-27T07:52:53.991Z,79.23
2019-03-27T07:53:54.003Z,79.23
2019-03-27T07:54:53.972Z,79.95
2019-03-27T07:55:53.976Z,79.03
2019-03-27T07:56:53.947Z,79.40
2019-03-27T07:57:54.005Z,78.41
2019-03-27T07:58:53.929Z,78.72
2019-03-27T07:59:53.922Z,78.51
2019-03-27T08:00:53.904Z,78.30
2019-03-27T08:01:53.953Z,77.83
2019-03-27T08:02:53.881Z,77.31
2019-03-27T08:03:53.884Z,77.66
2019-03-27T08:04:53.917Z,78.89
2019-03-27T08:05:53.847Z,79.68
2019-03-27T08:06:53.885Z,79.79
2019-03-27T08:07:53.823Z,79.13
2019-03-27T08:08:53.810Z,78.92
2019-03-27T08:09:53.802Z,78.72
2019-03-27T08:10:53.801Z,79.54
2019-03-27T08:11:53.825Z,78.82
2019-03-27T08:12:53.760Z,79.13
2019-03-27T08:13:53.751Z,77.79
2019-03-27T08:14:53.738Z,78.61
2019-03-27T08:15:53.728Z,78.72
2019-03-27T08:16:53.743Z,78.37
2019-03-27T08:17:53.713Z,77.07
2019-03-27T08:19:06.578Z,77.17
2019-03-27T08:19:54.756Z,77.75
2019-03-27T08:20:53.675Z,78.64
2019-03-27T08:21:53.663Z,79.05
2019-03-27T08:22:53.696Z,75.39
2019-03-27T08:23:53.637Z,76.21
2019-03-27T08:24:53.654Z,76.52
2019-03-27T08:25:53.668Z,76.69
2019-03-27T08:26:53.633Z,77.62
2019-03-27T08:27:53.596Z,76.38
2019-03-27T08:28:53.614Z,75.25
2019-03-27T08:29:53.572Z,75.04
2019-03-27T08:30:53.567Z,74.63
2019-03-27T08:31:53.552Z,75.21
2019-03-27T08:32:53.543Z,73.98
2019-03-27T08:33:53.546Z,74.43
2019-03-27T08:34:53.535Z,75.67
2019-03-27T08:35:53.518Z,74.43
2019-03-27T08:36:53.498Z,75.42
2019-03-27T08:37:53.481Z,75.83
2019-03-27T08:38:53.492Z,74.98
2019-03-27T08:39:53.485Z,74.98
2019-03-27T08:40:53.454Z,73.61
2019-03-27T08:41:53.444Z,74.74
2019-03-27T08:42:53.453Z,74.32
2019-03-27T08:43:53.446Z,73.61
2019-03-27T08:44:53.401Z,74.15
2019-03-27T08:45:53.427Z,73.44
2019-03-27T08:46:53.382Z,74.19
2019-03-27T08:47:53.368Z,74.29
2019-03-27T08:48:53.368Z,74.05
2019-03-27T08:49:53.351Z,72.89
2019-03-27T08:50:53.352Z,72.13
2019-03-27T08:51:53.342Z,74.46
2019-03-27T08:52:53.348Z,74.32
2019-03-27T08:53:53.315Z,73.36
2019-03-27T08:54:53.287Z,72.24
2019-03-27T08:55:53.307Z,72.10
2019-03-27T08:56:53.278Z,71.76
2019-03-27T08:57:53.259Z,70.32
2019-03-27T08:58:53.323Z,70.94
2019-03-27T08:59:53.254Z,70.43
2019-03-27T09:00:53.250Z,69.81
2019-03-27T09:01:53.222Z,70.53
2019-03-27T09:02:53.197Z,69.78
2019-03-27T09:03:53.186Z,70.32
2019-03-27T09:04:53.178Z,72.27
2019-03-27T09:05:53.196Z,68.79
2019-03-27T09:06:53.156Z,70.43
2019-03-27T09:07:53.151Z,70.94
2019-03-27T09:08:53.134Z,70.60
2019-03-27T09:09:53.121Z,69.40
2019-03-27T09:10:53.139Z,69.71
2019-03-27T09:11:53.099Z,70.91
2019-03-27T09:12:53.085Z,71.01
2019-03-27T09:13:53.083Z,70.19
2019-03-27T09:14:53.088Z,69.17
2019-03-27T09:15:53.080Z,69.27
2019-03-27T09:16:53.041Z,68.65
2019-03-27T09:17:53.051Z,69.17
2019-03-27T09:18:53.019Z,70.19
2019-03-27T09:19:53.038Z,69.78
2019-03-27T09:20:53.009Z,68.83
2019-03-27T09:21:52.998Z,68.83
2019-03-27T09:22:52.970Z,69.44
2019-03-27T09:23:52.981Z,68.18
2019-03-27T09:24:52.964Z,68.28
2019-03-27T09:25:52.940Z,67.26
2019-03-27T09:26:52.931Z,67.16
2019-03-27T09:27:52.920Z,67.67
2019-03-27T09:28:52.930Z,67.40
2019-03-27T09:29:52.905Z,67.49
2019-03-27T09:30:52.895Z,67.46
2019-03-27T09:31:52.870Z,68.68
2019-03-27T09:32:52.891Z,68.79
2019-03-27T09:33:52.876Z,69.06
2019-03-27T09:34:52.869Z,69.34
2019-03-27T09:35:52.971Z,66.24
2019-03-27T09:36:52.843Z,65.31
2019-03-27T09:37:52.834Z,65.42
2019-03-27T09:38:52.811Z,65.83
2019-03-27T09:39:52.783Z,67.16
2019-03-27T09:40:52.771Z,68.28
2019-03-27T09:41:52.783Z,67.13
2019-03-27T09:42:52.753Z,65.21
2019-03-27T09:43:52.740Z,65.62
2019-03-27T09:44:52.758Z,65.31
2019-03-27T09:45:52.716Z,66.54
2019-03-27T09:46:52.745Z,66.20
2019-03-27T09:47:52.695Z,64.26
2019-03-27T09:48:52.694Z,65.31
2019-03-27T09:49:52.684Z,65.62
2019-03-27T09:50:52.658Z,65.90
2019-03-27T09:51:52.727Z,66.20
2019-03-27T09:52:52.674Z,65.56
2019-03-27T09:53:53.331Z,64.40
2019-03-27T09:54:52.616Z,64.89
2019-03-27T09:55:52.605Z,64.31
2019-03-27T09:56:52.606Z,64.52
2019-03-27T09:57:52.604Z,62.99
2019-03-27T09:58:52.569Z,62.96
2019-03-27T09:59:52.595Z,62.58
2019-03-27T10:00:52.550Z,64.42
2019-03-27T10:01:52.535Z,62.71
2019-03-27T10:02:52.526Z,62.74
2019-03-27T10:03:52.522Z,63.76
2019-03-27T10:04:55.791Z,64.37
2019-03-27T10:05:52.556Z,62.35
2019-03-27T10:06:52.477Z,60.51
2019-03-27T10:07:52.475Z,62.04
2019-03-27T10:08:52.455Z,62.14
2019-03-27T10:09:52.468Z,61.83
2019-03-27T10:10:52.459Z,61.09
2019-03-27T10:11:52.422Z,60.86
2019-03-27T10:12:52.418Z,60.02
2019-03-27T10:13:52.466Z,60.70
2019-03-27T10:14:52.440Z,58.97
2019-03-27T10:15:52.401Z,60.83
2019-03-27T10:16:52.369Z,61.78
2019-03-27T10:17:52.353Z,56.91
2019-03-27T10:18:52.344Z,58.47
2019-03-27T10:20:02.777Z,59.66
2019-03-27T10:20:53.342Z,59.66
2019-03-27T10:21:52.311Z,61.35
2019-03-27T10:22:52.304Z,60.94
2019-03-27T10:23:52.300Z,61.35
2019-03-27T10:24:52.312Z,61.73
2019-03-27T10:25:52.296Z,63.19
2019-03-27T10:26:52.256Z,61.66
2019-03-27T10:27:52.252Z,61.35
2019-03-27T10:28:52.231Z,60.44
2019-03-27T10:29:52.244Z,62.23
2019-03-27T10:30:52.209Z,61.82
2019-03-27T10:31:52.227Z,61.51
2019-03-27T10:32:52.211Z,61.51
2019-03-27T10:33:52.203Z,62.90
2019-03-27T10:34:52.169Z,63.62
2019-03-27T10:35:52.152Z,63.69
2019-03-27T10:36:52.137Z,62.39
2019-03-27T10:37:52.164Z,61.57
2019-03-27T10:38:52.115Z,60.69
2019-03-27T10:39:52.164Z,61.00
2019-03-27T10:40:52.097Z,61.28
2019-03-27T10:41:52.084Z,62.14
2019-03-27T10:42:52.104Z,60.66
2019-03-27T10:43:52.079Z,58.59
2019-03-27T10:44:52.049Z,57.78
2019-03-27T10:45:52.047Z,56.45
2019-03-27T10:46:52.027Z,58.46
2019-03-27T10:47:52.061Z,57.72
2019-03-27T10:48:53.140Z,54.46
2019-03-27T10:49:52.056Z,55.41
2019-03-27T10:50:51.979Z,55.84
2019-03-27T10:51:51.969Z,56.40
2019-03-27T10:52:51.957Z,56.43
2019-03-27T10:53:51.997Z,56.71
2019-03-27T10:54:51.937Z,56.78
2019-03-27T10:55:51.928Z,56.15
2019-03-27T10:56:51.949Z,56.04
2019-03-27T10:57:51.908Z,55.43
2019-03-27T10:58:51.892Z,55.84
2019-03-27T10:59:51.878Z,57.26
2019-03-27T11:00:51.917Z,55.58
2019-03-27T11:01:51.888Z,55.20
2019-03-27T11:02:51.956Z,56.42
2019-03-27T11:03:51.833Z,54.92
2019-03-27T11:04:51.821Z,54.31
2019-03-27T11:05:51.812Z,54.59
2019-03-27T11:06:51.854Z,52.91
2019-03-27T11:07:51.797Z,55.58
2019-03-27T11:08:51.778Z,55.66
2019-03-27T11:09:51.775Z,54.46
2019-03-27T11:10:51.839Z,52.88
2019-03-27T11:11:51.746Z,54.24
2019-03-27T11:12:51.757Z,55.89
2019-03-27T11:13:51.731Z,56.30
2019-03-27T11:14:51.710Z,56.35
2019-03-27T11:15:51.715Z,58.09
2019-03-27T11:16:51.766Z,59.00
2019-03-27T11:17:51.677Z,58.32
2019-03-27T11:18:51.672Z,58.93
2019-03-27T11:19:51.652Z,56.38
2019-03-27T11:20:51.667Z,57.45
2019-03-27T11:21:51.635Z,58.68
2019-03-27T11:22:51.619Z,58.40
2019-03-27T11:23:51.614Z,58.48
2019-03-27T11:24:51.596Z,56.27
2019-03-27T11:25:51.617Z,54.44
2019-03-27T11:26:51.577Z,55.69
2019-03-27T11:27:51.599Z,55.41
2019-03-27T11:28:51.580Z,54.59
2019-03-27T11:29:51.543Z,54.64
2019-03-27T11:30:51.539Z,55.38
2019-03-27T11:31:51.526Z,56.28
2019-03-27T11:32:51.528Z,56.59
2019-03-27T11:33:51.531Z,56.63
2019-03-27T11:34:51.482Z,56.40
2019-03-27T11:35:51.948Z,56.15
2019-03-27T11:36:51.478Z,56.63
2019-03-27T11:37:51.453Z,54.36
2019-03-27T11:38:51.466Z,54.26
2019-03-27T11:39:51.429Z,52.20
2019-03-27T11:40:51.421Z,52.37
2019-03-27T11:41:51.406Z,49.60
2019-03-27T11:42:51.440Z,50.11
2019-03-27T11:43:55.097Z,50.42
2019-03-27T11:44:51.371Z,50.11
2019-03-27T11:45:51.365Z,51.13
2019-03-27T11:46:51.356Z,52.76
2019-03-27T11:47:51.364Z,51.23
2019-03-27T11:48:51.327Z,50.37
2019-03-27T11:49:51.316Z,48.56
2019-03-27T11:50:51.303Z,51.51
2019-03-27T11:51:51.317Z,51.28
2019-03-27T11:52:51.290Z,50.34
2019-03-27T11:53:51.279Z,50.60
2019-03-27T11:54:51.255Z,51.29
2019-03-27T11:55:51.249Z,50.35
2019-03-27T11:56:51.281Z,49.13
2019-03-27T11:57:51.227Z,47.43
2019-03-27T11:58:51.264Z,47.50
2019-03-27T11:59:54.254Z,49.37
2019-03-27T12:00:54.985Z,49.98
2019-03-27T12:01:51.211Z,50.57
2019-03-27T12:02:51.207Z,49.61
2019-03-27T12:03:51.157Z,46.23
2019-03-27T12:04:51.148Z,46.33
2019-03-27T12:05:51.162Z,48.49
2019-03-27T12:06:51.136Z,49.08
2019-03-27T12:07:51.114Z,47.14
2019-03-27T12:08:51.179Z,47.13
2019-03-27T12:09:51.124Z,46.21
2019-03-27T12:10:51.087Z,48.42
2019-03-27T12:11:51.068Z,47.61
2019-03-27T12:12:51.083Z,47.33
2019-03-27T12:13:51.061Z,48.27
2019-03-27T12:14:51.096Z,48.27
2019-03-27T12:15:51.056Z,47.75
2019-03-27T12:16:51.026Z,47.61
2019-03-27T12:17:51.003Z,46.59
2019-03-27T12:18:51.028Z,46.51
2019-03-27T12:19:51.001Z,46.51
2019-03-27T12:20:59.013Z,48.24
2019-03-27T12:21:54.629Z,49.33
2019-03-27T12:22:57.604Z,47.94
2019-03-27T12:23:51.958Z,47.02
2019-03-27T12:24:50.958Z,47.55
2019-03-27T12:25:50.918Z,49.81
2019-03-27T12:26:50.896Z,50.22
2019-03-27T12:27:50.891Z,49.20
2019-03-27T12:28:50.903Z,49.12
2019-03-27T12:29:50.984Z,49.02
2019-03-27T12:30:50.856Z,51.23
2019-03-27T12:31:50.843Z,48.61
2019-03-27T12:32:50.858Z,50.37
2019-03-27T12:33:50.823Z,49.04
2019-03-27T12:34:50.809Z,48.03
2019-03-27T12:35:50.795Z,49.48
2019-03-27T12:36:50.810Z,51.33
2019-03-27T12:37:50.775Z,50.52
2019-03-27T12:38:50.763Z,51.03
2019-03-27T12:39:50.749Z,51.92
2019-03-27T12:40:50.740Z,51.61
2019-03-27T12:41:50.761Z,51.20
2019-03-27T12:42:50.720Z,50.98
2019-03-27T12:43:50.714Z,49.04
2019-03-27T12:44:50.764Z,51.20
2019-03-27T12:45:50.683Z,51.31
2019-03-27T12:46:52.037Z,49.48
2019-03-27T12:47:50.666Z,50.42
2019-03-27T12:48:50.650Z,51.68
2019-03-27T12:49:52.002Z,54.13
2019-03-27T12:50:50.662Z,53.01
2019-03-27T12:51:50.616Z,53.67
2019-03-27T12:52:50.633Z,52.40